Time;durP1;ratioP1;P1;durP2;ratioP2;P2;SDS_P1;SDS_P2;PMS_P1;PMS_P2;Temp;Humidity;BMP_temperature;BMP_pressure;BME280_temperature;BME280_humidity;BME280_pressure;Samples;Min_cycle;Max_cycle;Signal;HPM_P1;HPM_P2
2023/05/16 00:00:57;;;;;;;3.17;1.60;;;20.70;64.20;;;;;;5066027;28;20127;-65
2023/05/16 00:03:22;;;;;;;3.60;1.20;;;20.70;64.20;;;;;;5070428;28;20059;-65
2023/05/16 00:05:49;;;;;;;3.58;1.55;;;20.80;64.20;;;;;;5072317;28;20548;-65
2023/05/16 00:08:15;;;;;;;4.35;1.30;;;20.80;64.20;;;;;;5072504;28;20094;-65
2023/05/16 00:10:40;;;;;;;4.38;1.50;;;20.70;64.10;;;;;;5057029;28;20044;-65
2023/05/16 00:13:06;;;;;;;3.85;1.50;;;20.70;64.10;;;;;;5071572;28;20143;-65
2023/05/16 00:15:32;;;;;;;3.00;1.38;;;20.70;64.10;;;;;;5071521;28;20071;-65
2023/05/16 00:17:58;;;;;;;3.45;1.27;;;20.70;64.10;;;;;;5072117;28;20047;-65
2023/05/16 00:20:27;;;;;;;4.57;1.42;;;20.70;64.10;;;;;;5071394;28;20051;-65
2023/05/16 00:22:52;;;;;;;3.30;1.20;;;20.70;64.10;;;;;;5071760;28;20480;-65
2023/05/16 00:25:18;;;;;;;3.67;1.30;;;20.70;64.00;;;;;;5071816;28;20055;-65
2023/05/16 00:27:43;;;;;;;3.33;1.40;;;20.70;64.00;;;;;;5072410;28;20116;-65
2023/05/16 00:30:09;;;;;;;4.00;1.40;;;20.70;64.00;;;;;;5071671;28;20864;-65
2023/05/16 00:32:35;;;;;;;3.58;1.50;;;20.70;64.00;;;;;;5072285;28;20041;-65
2023/05/16 00:35:01;;;;;;;3.90;1.23;;;20.70;64.00;;;;;;5072084;28;20112;-65
2023/05/16 00:37:26;;;;;;;3.33;1.30;;;20.70;64.00;;;;;;5070119;28;20082;-65
2023/05/16 00:39:52;;;;;;;5.07;1.23;;;20.60;63.90;;;;;;5070582;28;20044;-65
2023/05/16 00:42:19;;;;;;;4.63;1.30;;;20.60;63.90;;;;;;5071479;28;20049;-65
2023/05/16 00:44:44;;;;;;;3.00;1.08;;;20.70;64.00;;;;;;5070697;28;20097;-65
2023/05/16 00:47:10;;;;;;;2.42;0.98;;;20.60;63.90;;;;;;5071881;28;20486;-65
2023/05/16 00:49:36;;;;;;;4.15;1.20;;;20.60;64.00;;;;;;5081700;28;20047;-65
2023/05/16 00:52:01;;;;;;;3.72;1.27;;;20.60;63.90;;;;;;5081881;28;20044;-65
2023/05/16 00:54:28;;;;;;;2.92;1.20;;;20.60;63.90;;;;;;5071636;28;20044;-65
2023/05/16 00:56:55;;;;;;;3.33;1.20;;;20.60;63.90;;;;;;5083622;28;20052;-65
2023/05/16 00:59:20;;;;;;;2.15;1.15;;;20.60;63.90;;;;;;5070654;28;20048;-65
2023/05/16 01:01:49;;;;;;;3.53;1.25;;;20.60;63.90;;;;;;5053870;28;20037;-65
2023/05/16 01:04:14;;;;;;;3.22;1.35;;;20.60;63.90;;;;;;5055801;28;20049;-65
2023/05/16 01:06:40;;;;;;;2.88;1.10;;;20.60;63.90;;;;;;5038165;28;20052;-65
2023/05/16 01:09:06;;;;;;;3.10;1.27;;;20.60;63.80;;;;;;5071126;28;20480;-65
2023/05/16 01:11:39;;;;;;;2.72;1.20;;;20.60;63.80;;;;;;5070806;28;20059;-65
2023/05/16 01:14:11;;;;;;;2.72;1.00;;;20.60;63.80;;;;;;5070254;28;20044;-65
2023/05/16 01:16:59;;;;;;;4.13;1.25;;;20.60;63.80;;;;;;5053971;28;20052;-65
2023/05/16 01:19:51;;;;;;;4.80;1.30;;;20.60;63.80;;;;;;5069990;28;20059;-65
2023/05/16 01:22:36;;;;;;;3.28;1.10;;;20.50;63.80;;;;;;5070249;28;20405;-65
2023/05/16 01:25:23;;;;;;;4.47;1.30;;;20.50;63.70;;;;;;5054334;28;20571;-64
2023/05/16 01:27:50;;;;;;;3.88;1.13;;;20.60;63.80;;;;;;5069956;28;20044;-65
2023/05/16 01:30:16;;;;;;;2.85;1.00;;;20.50;63.80;;;;;;5045330;28;20511;-64
2023/05/16 01:32:42;;;;;;;5.57;1.17;;;20.50;63.80;;;;;;5063504;28;20334;-64
2023/05/16 01:35:14;;;;;;;4.68;1.10;;;20.50;63.70;;;;;;5069719;28;20101;-65
2023/05/16 01:37:45;;;;;;;3.80;1.13;;;20.50;63.80;;;;;;5050528;28;20477;-64
2023/05/16 01:40:32;;;;;;;3.15;1.10;;;20.50;63.80;;;;;;5051226;28;20069;-64
2023/05/16 01:42:58;;;;;;;2.40;0.95;;;20.50;63.70;;;;;;5060616;28;20047;-64
2023/05/16 01:45:26;;;;;;;3.45;1.10;;;20.50;63.80;;;;;;5073685;28;20044;-66
2023/05/16 01:48:15;;;;;;;3.53;1.27;;;20.50;63.70;;;;;;5078849;28;20047;-64
2023/05/16 01:50:43;;;;;;;4.07;1.00;;;20.50;63.80;;;;;;5073774;28;20040;-65
2023/05/16 01:53:13;;;;;;;2.88;1.00;;;20.40;63.80;;;;;;5069791;28;20058;-63
2023/05/16 01:55:46;;;;;;;3.63;1.33;;;20.50;63.80;;;;;;5037087;28;20056;-63
2023/05/16 01:58:13;;;;;;;1.75;0.90;;;20.40;63.70;;;;;;5069903;28;20048;-64
2023/05/16 02:00:39;;;;;;;4.53;1.20;;;20.40;63.70;;;;;;5037341;28;20090;-65
2023/05/16 02:03:05;;;;;;;2.90;0.98;;;20.40;63.70;;;;;;5070127;28;20131;-65
2023/05/16 02:05:31;;;;;;;3.22;1.10;;;20.40;63.70;;;;;;5073166;28;20136;-64
2023/05/16 02:07:57;;;;;;;2.40;0.95;;;20.40;63.70;;;;;;5074075;28;20056;-64
2023/05/16 02:10:23;;;;;;;2.75;1.00;;;20.40;63.70;;;;;;5056465;28;20365;-65
2023/05/16 02:12:49;;;;;;;2.60;0.90;;;20.40;63.70;;;;;;5073387;28;20055;-64
2023/05/16 02:15:15;;;;;;;4.97;1.25;;;20.40;63.70;;;;;;5073737;28;20059;-64
2023/05/16 02:17:40;;;;;;;3.03;1.00;;;20.40;63.70;;;;;;5072906;28;20419;-64
2023/05/16 02:20:09;;;;;;;2.75;1.02;;;20.40;63.70;;;;;;5074141;28;20044;-65
2023/05/16 02:22:35;;;;;;;4.18;1.17;;;20.40;63.70;;;;;;5082727;28;20056;-64
2023/05/16 02:25:02;;;;;;;4.82;1.10;;;20.40;63.70;;;;;;5073505;28;20487;-64
2023/05/16 02:27:28;;;;;;;4.28;1.10;;;20.40;63.70;;;;;;5072850;28;20079;-64
2023/05/16 02:29:53;;;;;;;4.00;1.35;;;20.40;63.70;;;;;;5071827;28;20040;-65
2023/05/16 02:32:19;;;;;;;2.97;0.80;;;20.40;63.70;;;;;;5060909;28;20073;-64
2023/05/16 02:34:44;;;;;;;2.30;1.00;;;20.30;63.70;;;;;;5094652;28;20047;-64
2023/05/16 02:37:10;;;;;;;3.63;1.00;;;20.30;63.60;;;;;;5088799;28;20123;-65
2023/05/16 02:39:36;;;;;;;3.22;1.00;;;20.30;63.60;;;;;;5073125;28;20049;-64
2023/05/16 02:42:03;;;;;;;3.85;1.10;;;20.30;63.60;;;;;;5072844;28;20128;-64
2023/05/16 02:44:28;;;;;;;3.75;1.05;;;20.30;63.60;;;;;;5072806;28;20155;-64
2023/05/16 02:46:54;;;;;;;2.33;0.80;;;20.30;63.60;;;;;;5073969;28;20540;-64
2023/05/16 02:49:19;;;;;;;5.43;0.93;;;20.30;63.70;;;;;;5074207;28;20185;-65
2023/05/16 02:51:45;;;;;;;1.75;0.80;;;20.30;63.60;;;;;;5073968;28;20486;-65
2023/05/16 02:54:11;;;;;;;2.70;0.90;;;20.30;63.60;;;;;;5072392;28;20049;-64
2023/05/16 02:56:37;;;;;;;2.67;1.17;;;20.30;63.70;;;;;;5073069;28;20045;-64
2023/05/16 02:59:03;;;;;;;2.75;0.70;;;20.30;63.60;;;;;;5073641;28;20041;-64
2023/05/16 03:01:28;;;;;;;2.60;1.10;;;20.30;63.70;;;;;;5070507;28;20064;-64
2023/05/16 03:03:54;;;;;;;2.42;1.00;;;20.30;63.60;;;;;;5072704;28;20051;-64
2023/05/16 03:06:20;;;;;;;3.72;1.13;;;20.20;63.60;;;;;;5073341;28;20044;-64
2023/05/16 03:08:46;;;;;;;3.10;0.70;;;20.30;63.60;;;;;;5073434;28;20041;-64
2023/05/16 03:11:12;;;;;;;4.55;1.02;;;20.20;63.50;;;;;;5071994;28;20514;-64
2023/05/16 03:13:37;;;;;;;4.35;1.00;;;20.20;63.60;;;;;;5071789;28;20051;-65
2023/05/16 03:16:03;;;;;;;4.15;0.90;;;20.20;63.60;;;;;;5073177;28;20124;-64
2023/05/16 03:18:29;;;;;;;2.22;0.65;;;20.20;63.50;;;;;;5072156;28;20048;-64
2023/05/16 03:20:56;;;;;;;3.38;1.00;;;20.20;63.50;;;;;;5090346;28;20036;-64
2023/05/16 03:23:21;;;;;;;6.05;1.10;;;20.20;63.50;;;;;;5081864;28;20072;-65
2023/05/16 03:25:47;;;;;;;4.07;0.98;;;20.20;63.50;;;;;;5071325;28;20134;-64
2023/05/16 03:28:13;;;;;;;3.28;1.13;;;20.20;63.60;;;;;;5073235;28;20052;-64
2023/05/16 03:30:38;;;;;;;3.25;0.90;;;20.20;63.50;;;;;;5072004;28;20036;-65
2023/05/16 03:33:04;;;;;;;2.75;0.70;;;20.20;63.50;;;;;;5071750;28;20052;-64
2023/05/16 03:35:30;;;;;;;2.92;0.80;;;20.20;63.60;;;;;;5072021;28;20036;-64
2023/05/16 03:37:56;;;;;;;3.15;0.90;;;20.20;63.50;;;;;;5072044;28;20044;-64
2023/05/16 03:40:21;;;;;;;3.97;0.98;;;20.20;63.60;;;;;;5072344;28;20043;-64
2023/05/16 03:42:47;;;;;;;3.58;0.90;;;20.20;63.50;;;;;;5071987;28;20036;-64
2023/05/16 03:45:12;;;;;;;4.50;0.85;;;20.20;63.50;;;;;;5072892;28;20093;-64
2023/05/16 03:47:38;;;;;;;3.22;0.98;;;20.20;63.50;;;;;;5072547;28;20044;-64
2023/05/16 03:50:04;;;;;;;2.90;1.00;;;20.10;63.40;;;;;;5072105;28;20040;-65
2023/05/16 03:52:30;;;;;;;3.15;0.80;;;20.10;63.40;;;;;;5072875;28;20033;-65
2023/05/16 03:54:56;;;;;;;3.22;0.80;;;20.10;63.50;;;;;;5071281;28;20048;-64
2023/05/16 03:57:21;;;;;;;3.22;0.85;;;20.10;63.40;;;;;;5071254;28;20040;-65
2023/05/16 03:59:47;;;;;;;2.38;1.02;;;20.10;63.40;;;;;;5072953;28;20044;-64
2023/05/16 04:02:12;;;;;;;3.15;0.77;;;20.10;63.40;;;;;;5071786;28;20036;-64
2023/05/16 04:04:38;;;;;;;4.20;0.73;;;20.10;63.40;;;;;;5071232;28;20040;-64
2023/05/16 04:07:03;;;;;;;2.50;0.65;;;20.10;63.40;;;;;;5089097;28;20434;-64
2023/05/16 04:09:29;;;;;;;2.90;0.90;;;20.10;63.30;;;;;;5072280;28;20083;-64
2023/05/16 04:11:55;;;;;;;2.92;0.82;;;20.10;64.00;;;;;;5070899;28;20052;-64
2023/05/16 04:14:22;;;;;;;3.95;0.95;;;20.10;63.30;;;;;;5072204;28;20052;-64
2023/05/16 04:16:48;;;;;;;3.28;0.80;;;20.10;63.30;;;;;;5072077;28;20059;-64
2023/05/16 04:19:14;;;;;;;4.50;0.93;;;20.10;63.30;;;;;;5071968;28;20045;-64
2023/05/16 04:21:39;;;;;;;4.25;0.70;;;20.10;63.30;;;;;;5072780;28;20048;-64
2023/05/16 04:24:06;;;;;;;2.22;0.70;;;20.10;63.30;;;;;;5072012;28;20052;-64
2023/05/16 04:26:31;;;;;;;5.03;0.95;;;20.00;63.20;;;;;;5072312;28;20084;-64
2023/05/16 04:28:57;;;;;;;5.50;1.00;;;20.10;63.30;;;;;;5072073;28;20086;-64
2023/05/16 04:31:24;;;;;;;4.03;1.00;;;20.10;63.30;;;;;;5069781;28;20040;-64
2023/05/16 04:33:50;;;;;;;1.67;0.70;;;20.10;63.30;;;;;;5072318;28;20045;-64
2023/05/16 04:36:15;;;;;;;3.10;0.90;;;20.00;63.20;;;;;;5071560;28;20071;-64
2023/05/16 04:38:41;;;;;;;3.25;0.80;;;20.00;63.20;;;;;;5071105;28;20037;-64
2023/05/16 04:41:07;;;;;;;3.08;0.77;;;20.10;63.30;;;;;;5084976;28;20119;-64
2023/05/16 04:43:32;;;;;;;3.65;0.95;;;20.10;63.30;;;;;;5083385;28;20060;-64
2023/05/16 04:45:58;;;;;;;1.85;0.75;;;20.10;63.30;;;;;;5071422;28;20055;-64
2023/05/16 04:48:24;;;;;;;1.83;0.50;;;20.10;63.40;;;;;;5083788;28;20543;-64
2023/05/16 04:50:50;;;;;;;2.90;0.77;;;20.10;63.50;;;;;;5070586;28;20510;-64
2023/05/16 04:53:15;;;;;;;4.57;1.35;;;20.10;63.50;;;;;;5059062;28;20052;-64
2023/05/16 04:55:41;;;;;;;4.90;0.80;;;20.10;63.60;;;;;;5071008;28;20044;-64
2023/05/16 04:58:07;;;;;;;2.17;0.60;;;20.10;63.60;;;;;;5071054;28;20487;-64
2023/05/16 05:00:33;;;;;;;2.30;0.70;;;20.10;63.60;;;;;;5070906;28;20048;-64
2023/05/16 05:02:58;;;;;;;3.78;1.00;;;20.10;63.70;;;;;;5070699;28;20446;-64
2023/05/16 05:05:24;;;;;;;2.58;0.60;;;20.10;63.80;;;;;;5069981;28;20039;-64
2023/05/16 05:07:50;;;;;;;2.60;0.60;;;20.10;63.80;;;;;;5069512;28;20052;-64
2023/05/16 05:10:15;;;;;;;3.65;0.80;;;20.10;63.80;;;;;;5071620;28;20059;-64
2023/05/16 05:12:41;;;;;;;4.03;0.82;;;20.10;63.80;;;;;;5071914;28;20400;-64
2023/05/16 05:15:07;;;;;;;3.67;0.73;;;20.10;63.80;;;;;;5071863;28;20056;-64
2023/05/16 05:17:33;;;;;;;2.65;0.85;;;20.10;63.80;;;;;;5091153;28;20044;-64
2023/05/16 05:19:58;;;;;;;2.45;0.70;;;20.10;63.80;;;;;;5071209;28;20044;-64
2023/05/16 05:22:24;;;;;;;3.38;0.90;;;20.10;63.80;;;;;;5071367;28;20153;-64
2023/05/16 05:24:50;;;;;;;1.60;0.80;;;20.10;63.80;;;;;;5070724;28;20063;-64
2023/05/16 05:27:16;;;;;;;2.10;0.60;;;20.10;63.80;;;;;;5069496;28;20573;-63
2023/05/16 05:29:41;;;;;;;2.65;0.90;;;20.10;63.70;;;;;;5070312;28;20048;-64
2023/05/16 05:32:07;;;;;;;3.40;1.00;;;20.20;63.70;;;;;;5071661;28;20037;-64
2023/05/16 05:34:33;;;;;;;3.65;1.02;;;20.20;63.70;;;;;;5069474;28;20049;-67
2023/05/16 05:36:58;;;;;;;3.00;0.70;;;20.20;63.70;;;;;;5069815;28;20040;-64
2023/05/16 05:39:24;;;;;;;3.88;1.02;;;20.20;63.70;;;;;;5070756;28;20041;-64
2023/05/16 05:41:50;;;;;;;2.83;0.70;;;20.20;63.60;;;;;;5073771;28;20045;-64
2023/05/16 05:44:15;;;;;;;3.97;0.82;;;20.20;63.40;;;;;;5074785;28;20047;-64
2023/05/16 05:46:41;;;;;;;5.38;1.23;;;20.20;63.30;;;;;;5074721;28;20036;-65
2023/05/16 05:49:07;;;;;;;4.65;0.80;;;20.30;63.40;;;;;;5057321;28;20511;-65
2023/05/16 05:51:32;;;;;;;4.07;0.88;;;20.30;63.40;;;;;;5074381;28;20131;-65
2023/05/16 05:53:58;;;;;;;2.65;0.93;;;20.30;63.40;;;;;;5073541;28;20127;-65
2023/05/16 05:56:23;;;;;;;9.80;0.98;;;20.30;63.40;;;;;;5074322;28;20087;-65
2023/05/16 05:58:50;;;;;;;5.65;0.90;;;20.30;63.40;;;;;;5073736;28;20048;-66
2023/05/16 06:01:15;;;;;;;3.90;0.77;;;20.30;63.60;;;;;;5086851;28;20506;-66
2023/05/16 06:03:41;;;;;;;5.18;1.00;;;20.40;63.60;;;;;;5085368;28;20119;-65
2023/05/16 06:06:07;;;;;;;5.55;0.93;;;20.40;63.60;;;;;;5093912;28;20480;-66
2023/05/16 06:08:33;;;;;;;5.30;0.93;;;20.40;63.50;;;;;;5082281;28;20049;-66
2023/05/16 06:10:59;;;;;;;4.93;0.80;;;20.40;63.50;;;;;;5075024;28;20174;-66
2023/05/16 06:13:24;;;;;;;6.78;0.98;;;20.40;63.50;;;;;;5073001;28;20040;-66
2023/05/16 06:15:51;;;;;;;2.80;0.80;;;20.40;63.60;;;;;;5074644;28;20048;-66
2023/05/16 06:18:16;;;;;;;4.13;0.98;;;20.50;63.70;;;;;;5071834;28;20040;-66
2023/05/16 06:20:42;;;;;;;2.22;0.88;;;20.50;63.70;;;;;;5073855;28;20051;-66
2023/05/16 06:23:07;;;;;;;4.32;0.98;;;20.50;63.70;;;;;;5073544;28;20051;-66
2023/05/16 06:25:33;;;;;;;3.20;0.90;;;20.50;63.80;;;;;;5073045;28;20044;-65
2023/05/16 06:27:58;;;;;;;4.70;0.90;;;20.50;63.90;;;;;;5056093;28;20151;-66
2023/05/16 06:30:24;;;;;;;4.25;0.90;;;20.50;63.80;;;;;;5063601;28;20507;-65
2023/05/16 06:32:49;;;;;;;6.30;1.02;;;20.50;63.90;;;;;;5074949;28;20137;-66
2023/05/16 06:35:15;;;;;;;6.25;0.95;;;20.50;63.90;;;;;;5080169;28;20512;-66
2023/05/16 06:37:41;;;;;;;5.13;0.80;;;20.50;64.00;;;;;;5090500;28;20037;-65
2023/05/16 06:40:07;;;;;;;6.10;1.08;;;20.50;64.00;;;;;;5073968;28;20071;-66
2023/05/16 06:42:32;;;;;;;3.97;0.80;;;20.60;64.10;;;;;;5073112;28;20045;-66
2023/05/16 06:44:58;;;;;;;4.03;0.90;;;20.60;64.10;;;;;;5072684;28;20169;-65
2023/05/16 06:47:23;;;;;;;3.00;0.80;;;20.60;64.20;;;;;;5072602;28;20102;-66
2023/05/16 06:49:49;;;;;;;5.43;1.10;;;20.60;64.20;;;;;;5072743;28;20040;-66
2023/05/16 06:52:15;;;;;;;4.10;1.08;;;20.60;64.30;;;;;;5072952;28;20091;-66
2023/05/16 06:54:41;;;;;;;5.03;0.70;;;20.60;64.30;;;;;;5072809;28;20076;-71
2023/05/16 06:57:07;;;;;;;4.93;0.98;;;20.60;64.30;;;;;;5071854;28;20405;-71
2023/05/16 06:59:34;;;;;;;4.18;1.27;;;20.60;64.30;;;;;;5073949;28;20052;-66
2023/05/16 07:02:00;;;;;;;4.00;0.70;;;20.60;64.30;;;;;;5074157;28;20066;-66
2023/05/16 07:04:25;;;;;;;2.45;0.80;;;20.60;64.20;;;;;;5073493;28;20401;-66
2023/05/16 07:06:51;;;;;;;4.40;0.77;;;20.60;64.10;;;;;;5074328;28;20040;-66
2023/05/16 07:09:17;;;;;;;5.95;1.10;;;20.60;64.00;;;;;;5071731;28;20423;-67
2023/05/16 07:11:43;;;;;;;5.10;0.90;;;20.60;64.10;;;;;;5072217;28;20036;-67
2023/05/16 07:14:08;;;;;;;5.10;1.10;;;20.60;64.00;;;;;;5072751;28;20037;-66
2023/05/16 07:16:34;;;;;;;4.80;0.93;;;20.60;64.10;;;;;;5074282;28;20040;-66
2023/05/16 07:19:00;;;;;;;3.55;0.80;;;20.60;64.10;;;;;;5072721;28;20395;-66
2023/05/16 07:21:25;;;;;;;3.70;0.70;;;20.60;64.10;;;;;;5071997;28;20040;-67
2023/05/16 07:23:51;;;;;;;5.35;0.77;;;20.60;64.00;;;;;;5071813;28;20044;-66
2023/05/16 07:26:17;;;;;;;3.47;0.70;;;20.60;64.00;;;;;;5053297;28;20106;-66
2023/05/16 07:28:43;;;;;;;5.70;0.82;;;20.60;64.00;;;;;;5055499;28;20049;-66
2023/05/16 07:31:08;;;;;;;2.90;0.57;;;20.60;63.90;;;;;;5063214;28;20048;-65
2023/05/16 07:33:34;;;;;;;4.82;0.80;;;20.60;63.90;;;;;;5065048;28;20049;-65
2023/05/16 07:36:00;;;;;;;3.05;0.80;;;20.60;63.90;;;;;;5056269;28;20124;-67
2023/05/16 07:38:25;;;;;;;2.75;0.88;;;20.60;63.90;;;;;;5052177;28;20049;-67
2023/05/16 07:40:51;;;;;;;4.40;0.65;;;20.60;63.70;;;;;;5053020;28;20045;-67
2023/05/16 07:43:17;;;;;;;4.22;0.70;;;20.60;63.60;;;;;;5068318;28;20036;-67
2023/05/16 07:45:42;;;;;;;4.28;0.77;;;20.60;63.60;;;;;;5063224;28;20045;-67
2023/05/16 07:48:08;;;;;;;7.70;1.63;;;20.50;63.60;;;;;;5052330;28;20037;-65
2023/05/16 07:50:34;;;;;;;10.30;2.08;;;20.60;63.60;;;;;;5053335;28;20055;-64
2023/05/16 07:52:59;;;;;;;11.55;1.88;;;20.60;63.60;;;;;;5052836;28;20048;-65
2023/05/16 07:55:25;;;;;;;11.23;2.28;;;20.50;63.70;;;;;;5051652;28;20048;-65
2023/05/16 07:57:51;;;;;;;8.70;2.15;;;20.60;63.70;;;;;;5035601;28;20481;-66
2023/05/16 08:00:17;;;;;;;9.48;1.85;;;20.60;63.80;;;;;;5051347;28;20069;-66
2023/05/16 08:02:43;;;;;;;6.78;2.10;;;20.60;63.90;;;;;;5052941;28;20068;-63
2023/05/16 08:05:08;;;;;;;7.30;2.30;;;20.60;64.00;;;;;;5051749;28;20443;-66
2023/05/16 08:07:34;;;;;;;7.75;2.33;;;20.60;64.00;;;;;;5051937;28;20072;-67
2023/05/16 08:10:00;;;;;;;13.35;2.45;;;20.60;64.00;;;;;;5051704;28;20048;-66
2023/05/16 08:12:26;;;;;;;11.23;2.10;;;20.60;64.00;;;;;;5052786;28;20049;-65
2023/05/16 08:14:51;;;;;;;8.70;2.05;;;20.70;63.90;;;;;;5064239;28;20040;-65
2023/05/16 08:17:17;;;;;;;7.35;2.05;;;20.70;63.70;;;;;;5073053;28;20052;-64
2023/05/16 08:19:43;;;;;;;8.82;2.17;;;20.70;63.60;;;;;;5073032;28;20095;-65
2023/05/16 08:22:09;;;;;;;10.90;2.03;;;20.70;63.60;;;;;;5072393;28;20033;-64
2023/05/16 08:24:34;;;;;;;10.07;1.80;;;20.70;63.40;;;;;;5072513;28;20548;-66
2023/05/16 08:27:00;;;;;;;6.45;1.70;;;20.70;63.30;;;;;;5070871;28;20063;-65
2023/05/16 08:29:26;;;;;;;8.13;1.98;;;20.70;63.20;;;;;;5064117;28;20051;-64
2023/05/16 08:31:51;;;;;;;8.60;1.77;;;20.70;63.20;;;;;;5065219;28;20043;-65
2023/05/16 08:34:17;;;;;;;7.28;1.75;;;20.70;63.20;;;;;;5072131;28;20465;-64
2023/05/16 08:36:42;;;;;;;7.50;2.10;;;20.70;63.80;;;;;;5072093;28;20051;-65
2023/05/16 08:39:10;;;;;;;8.82;1.90;;;20.70;63.20;;;;;;5072207;28;20044;-65
2023/05/16 08:41:36;;;;;;;8.50;2.00;;;20.70;63.20;;;;;;5072284;28;20048;-65
2023/05/16 08:44:01;;;;;;;7.72;2.50;;;20.70;63.10;;;;;;5062641;28;20462;-64
2023/05/16 08:46:27;;;;;;;8.73;1.65;;;20.70;63.10;;;;;;5084238;28;20046;-64
2023/05/16 08:48:53;;;;;;;6.22;1.65;;;20.70;63.10;;;;;;5072531;28;20098;-65
2023/05/16 08:51:19;;;;;;;8.05;1.83;;;20.70;63.00;;;;;;5060749;28;20132;-65
2023/05/16 08:53:51;;;;;;;9.25;2.00;;;20.70;63.00;;;;;;5072100;28;20041;-64
2023/05/16 08:56:17;;;;;;;6.65;1.45;;;20.70;63.00;;;;;;5070138;28;20075;-64
2023/05/16 08:58:43;;;;;;;6.15;1.63;;;20.70;63.00;;;;;;5070963;28;20072;-64
2023/05/16 09:01:08;;;;;;;6.32;1.58;;;20.70;62.90;;;;;;5071022;28;20049;-64
2023/05/16 09:03:37;;;;;;;4.95;1.10;;;20.70;62.90;;;;;;5071932;28;20044;-64
2023/05/16 09:06:06;;;;;;;7.18;1.40;;;20.80;62.80;;;;;;5053205;28;20051;-64
2023/05/16 09:08:32;;;;;;;9.50;1.30;;;20.80;62.70;;;;;;5053305;28;20041;-64
2023/05/16 09:10:57;;;;;;;4.13;1.15;;;20.80;62.70;;;;;;5058187;28;20373;-63
2023/05/16 09:13:24;;;;;;;3.90;1.25;;;20.80;62.60;;;;;;5071818;28;20037;-64
2023/05/16 09:16:11;;;;;;;7.90;1.35;;;20.70;62.60;;;;;;5069306;28;20064;-64
2023/05/16 09:18:37;;;;;;;5.65;1.23;;;20.70;62.50;;;;;;5073452;28;20507;-64
2023/05/16 09:21:04;;;;;;;5.22;1.55;;;20.70;62.60;;;;;;5075612;28;20037;-64
2023/05/16 09:23:29;;;;;;;5.72;1.42;;;20.70;62.60;;;;;;5080246;28;20029;-64
2023/05/16 09:25:56;;;;;;;3.72;1.20;;;20.70;63.20;;;;;;5065227;28;20408;-64
2023/05/16 09:28:22;;;;;;;6.50;1.48;;;20.80;62.60;;;;;;5072713;28;20119;-65
2023/05/16 09:30:48;;;;;;;6.13;1.40;;;20.80;62.50;;;;;;5074741;28;20403;-64
2023/05/16 09:33:14;;;;;;;3.53;1.05;;;20.80;62.50;;;;;;5074986;28;20472;-65
2023/05/16 09:35:39;;;;;;;8.70;1.83;;;20.80;62.50;;;;;;5075799;28;20517;-65
2023/05/16 09:38:05;;;;;;;5.90;1.55;;;20.80;62.40;;;;;;5075841;28;20051;-65
2023/05/16 09:40:31;;;;;;;5.40;1.50;;;20.80;62.50;;;;;;5073949;28;20050;-65
2023/05/16 09:43:04;;;;;;;6.85;1.60;;;20.80;62.40;;;;;;5074772;28;20052;-64
2023/05/16 09:45:30;;;;;;;5.35;1.30;;;20.80;62.30;;;;;;5075565;28;20037;-64
2023/05/16 09:48:07;;;;;;;4.05;1.15;;;20.80;62.30;;;;;;5075876;28;20218;-65
2023/05/16 09:50:33;;;;;;;5.05;1.40;;;20.80;62.10;;;;;;5061303;28;20045;-64
2023/05/16 09:52:59;;;;;;;6.75;1.40;;;20.80;62.20;;;;;;5060543;28;20044;-66
2023/05/16 09:55:25;;;;;;;6.57;1.38;;;20.80;62.20;;;;;;5063341;28;20083;-64
2023/05/16 09:57:50;;;;;;;5.57;1.13;;;20.80;62.30;;;;;;5060607;28;20077;-64
2023/05/16 10:00:18;;;;;;;7.10;1.25;;;20.80;62.40;;;;;;5062187;28;20048;-65
2023/05/16 10:02:44;;;;;;;4.28;1.20;;;20.70;62.40;;;;;;5074181;28;20561;-64
2023/05/16 10:05:09;;;;;;;8.38;1.35;;;20.80;62.50;;;;;;5052787;28;20072;-64
2023/05/16 10:07:35;;;;;;;6.90;1.42;;;20.80;62.60;;;;;;5074132;28;20496;-64
2023/05/16 10:10:04;;;;;;;5.25;1.10;;;20.80;62.60;;;;;;5039602;28;20032;-66
2023/05/16 10:12:30;;;;;;;5.90;2.10;;;20.70;62.50;;;;;;5073956;28;20123;-65
2023/05/16 10:14:56;;;;;;;5.50;1.35;;;20.70;62.50;;;;;;5073796;28;20082;-65
2023/05/16 10:17:22;;;;;;;5.93;1.30;;;20.70;62.40;;;;;;5074218;28;20040;-66
2023/05/16 10:19:48;;;;;;;6.68;1.20;;;20.70;62.30;;;;;;5056455;28;20033;-65
2023/05/16 10:22:13;;;;;;;8.52;1.70;;;20.70;62.30;;;;;;5064920;28;20055;-65
2023/05/16 10:24:43;;;;;;;6.30;1.42;;;20.70;62.30;;;;;;5056369;28;20132;-65
2023/05/16 10:27:09;;;;;;;6.60;1.10;;;20.80;62.30;;;;;;5071279;28;20056;-65
2023/05/16 10:29:36;;;;;;;3.95;1.05;;;20.80;62.40;;;;;;5042594;28;20059;-65
2023/05/16 10:32:02;;;;;;;5.80;1.40;;;20.80;62.40;;;;;;5073948;28;20132;-65
2023/05/16 10:34:28;;;;;;;3.72;1.08;;;20.80;62.30;;;;;;5072286;28;20559;-65
2023/05/16 10:36:54;;;;;;;4.95;1.17;;;20.80;62.20;;;;;;5078830;28;20040;-65
2023/05/16 10:39:20;;;;;;;6.57;1.20;;;20.80;62.20;;;;;;5072123;28;20044;-67
2023/05/16 10:41:46;;;;;;;5.53;1.40;;;20.80;62.20;;;;;;5072241;28;20051;-62
2023/05/16 10:44:15;;;;;;;7.57;1.20;;;20.80;62.20;;;;;;5072697;28;20048;-64
2023/05/16 10:46:40;;;;;;;7.22;1.42;;;20.80;62.10;;;;;;5056031;28;20420;-65
2023/05/16 10:49:19;;;;;;;11.13;1.45;;;20.80;62.00;;;;;;5072309;28;20051;-65
2023/05/16 10:51:45;;;;;;;6.03;1.17;;;20.80;61.90;;;;;;5073373;28;20040;-66
2023/05/16 10:54:12;;;;;;;8.10;1.50;;;20.80;62.10;;;;;;5072589;28;20040;-65
2023/05/16 10:56:38;;;;;;;7.18;1.30;;;20.80;62.20;;;;;;5072264;28;20106;-65
2023/05/16 10:59:03;;;;;;;7.85;1.70;;;20.80;62.30;;;;;;5072891;28;20070;-65
2023/05/16 11:01:33;;;;;;;8.02;1.42;;;20.80;62.40;;;;;;5073706;28;20047;-66
2023/05/16 11:03:58;;;;;;;5.97;1.58;;;20.80;62.50;;;;;;5072506;28;20051;-66
2023/05/16 11:06:33;;;;;;;10.98;1.77;;;20.80;62.50;;;;;;5072119;28;20040;-65
2023/05/16 11:09:12;;;;;;;5.03;1.23;;;20.90;62.40;;;;;;5072914;28;20468;-66
2023/05/16 11:11:47;;;;;;;6.85;1.33;;;20.90;62.30;;;;;;5072303;28;20492;-66
2023/05/16 11:14:20;;;;;;;7.63;1.50;;;20.90;62.30;;;;;;5072465;28;20040;-66
2023/05/16 11:17:15;;;;;;;11.88;1.67;;;20.90;62.30;;;;;;5072947;28;20048;-66
2023/05/16 11:19:51;;;;;;;7.78;1.60;;;20.90;62.30;;;;;;5049311;28;20056;-66
2023/05/16 11:22:29;;;;;;;6.22;1.60;;;20.90;62.30;;;;;;5060327;28;20045;-65
2023/05/16 11:25:04;;;;;;;5.45;1.20;;;20.80;62.30;;;;;;5069660;28;20051;-65
2023/05/16 11:27:46;;;;;;;5.47;1.20;;;20.80;62.30;;;;;;5056976;28;20059;-66
2023/05/16 11:30:16;;;;;;;8.27;1.75;;;20.80;62.40;;;;;;5055028;28;20116;-66
2023/05/16 11:32:44;;;;;;;7.72;1.25;;;20.80;62.50;;;;;;5062213;28;20059;-65
2023/05/16 11:35:18;;;;;;;7.10;1.20;;;20.80;62.60;;;;;;5065826;28;20041;-65
2023/05/16 11:37:44;;;;;;;6.75;1.30;;;20.80;62.60;;;;;;5066807;28;20040;-66
2023/05/16 11:40:11;;;;;;;5.38;1.30;;;20.80;62.60;;;;;;5062561;28;20044;-65
2023/05/16 11:42:38;;;;;;;6.15;1.33;;;20.80;62.50;;;;;;5072309;28;20079;-65
2023/05/16 11:45:11;;;;;;;7.32;1.20;;;20.90;62.60;;;;;;5070986;28;20564;-65
2023/05/16 11:47:37;;;;;;;5.28;1.23;;;20.90;62.50;;;;;;5072731;28;20403;-65
2023/05/16 11:50:10;;;;;;;6.82;1.23;;;20.90;62.50;;;;;;5071188;28;20055;-65
2023/05/16 11:52:36;;;;;;;7.60;1.60;;;20.90;62.40;;;;;;5072589;28;20537;-65
2023/05/16 11:55:03;;;;;;;4.22;1.17;;;20.90;62.30;;;;;;5079612;28;20052;-66
2023/05/16 11:57:29;;;;;;;3.13;1.10;;;20.90;62.20;;;;;;5072789;28;20190;-66
2023/05/16 11:59:54;;;;;;;7.65;1.05;;;20.90;62.20;;;;;;5083979;28;20075;-65
2023/05/16 12:02:20;;;;;;;5.95;1.25;;;20.90;62.00;;;;;;5072588;28;20056;-65
2023/05/16 12:04:49;;;;;;;4.97;1.20;;;21.00;62.00;;;;;;5072902;28;20041;-64
2023/05/16 12:07:14;;;;;;;;;;;21.00;62.00;;;;;;5072186;28;20081;-64
2023/05/16 12:09:40;;;;;;;5.13;1.00;;;20.90;61.90;;;;;;5071348;28;19924;-64
2023/05/16 12:12:06;;;;;;;7.82;1.00;;;21.00;62.60;;;;;;5071323;28;20036;-64
2023/05/16 12:14:32;;;;;;;6.20;1.33;;;21.00;61.90;;;;;;5070395;28;20436;-64
2023/05/16 12:16:57;;;;;;;5.65;1.20;;;21.00;61.90;;;;;;5053325;28;20040;-64
2023/05/16 12:19:23;;;;;;;3.38;1.00;;;21.00;61.70;;;;;;5072376;28;20089;-64
2023/05/16 12:21:52;;;;;;;5.32;1.13;;;21.00;61.70;;;;;;5071933;28;20032;-64
2023/05/16 12:24:17;;;;;;;4.80;0.88;;;21.00;61.60;;;;;;5070179;28;20045;-65
2023/05/16 12:26:43;;;;;;;5.35;0.98;;;21.00;61.50;;;;;;5071876;28;20055;-65
2023/05/16 12:29:10;;;;;;;4.07;1.05;;;21.00;61.50;;;;;;5071395;28;20481;-65
2023/05/16 12:31:36;;;;;;;5.57;1.08;;;21.00;61.50;;;;;;5072391;28;20048;-65
2023/05/16 12:34:02;;;;;;;4.00;1.10;;;21.00;61.50;;;;;;5072375;28;20109;-65
2023/05/16 12:36:31;;;;;;;4.32;1.00;;;21.00;61.50;;;;;;5071279;28;20464;-64
2023/05/16 12:39:00;;;;;;;6.95;1.00;;;21.00;61.40;;;;;;5072071;28;20563;-65
2023/05/16 12:41:26;;;;;;;4.22;1.13;;;21.00;61.40;;;;;;5071496;28;20051;-66
2023/05/16 12:43:51;;;;;;;2.88;0.73;;;21.00;61.40;;;;;;5071112;28;20044;-66
2023/05/16 12:46:18;;;;;;;7.60;1.13;;;21.00;61.30;;;;;;5052122;28;20448;-64